Time;durP1;ratioP1;P1;durP2;ratioP2;P2;SDS_P1;SDS_P2;PMS_P1;PMS_P2;Temp;Humidity;BMP_temperature;BMP_pressure;BME280_temperature;BME280_humidity;BME280_pressure;Samples;Min_cycle;Max_cycle;Signal;HPM_P1;HPM_P2
2024/01/22 00:06:37;;;;;;;7.88;7.15;;;2.60;1.00;;;;;;6132057;23;20212;-85
2024/01/22 00:09:05;;;;;;;7.40;5.80;;;2.60;1.00;;;;;;6136624;23;20542;-84
2024/01/22 00:11:32;;;;;;;10.50;6.95;;;2.60;1.00;;;;;;6136067;23;20675;-84
2024/01/22 00:13:59;;;;;;;9.48;6.22;;;2.60;1.00;;;;;;6134733;23;20252;-85
2024/01/22 00:16:26;;;;;;;8.55;6.75;;;2.60;1.00;;;;;;6135051;23;20235;-85
2024/01/22 00:18:54;;;;;;;7.35;6.63;;;2.60;1.00;;;;;;6133427;23;20567;-84
2024/01/22 00:21:21;;;;;;;6.50;5.90;;;2.50;6.20;;;;;;6133854;23;20187;-84
2024/01/22 00:23:49;;;;;;;7.22;5.97;;;2.50;23.90;;;;;;6133734;23;20690;-86
2024/01/22 00:26:16;;;;;;;8.05;5.90;;;2.50;88.80;;;;;;6133465;23;20240;-85
2024/01/22 00:28:43;;;;;;;11.30;7.18;;;2.50;90.40;;;;;;6131632;23;20197;-85
2024/01/22 00:31:10;;;;;;;7.63;5.90;;;2.50;95.60;;;;;;6131130;23;20219;-86
2024/01/22 00:33:37;;;;;;;10.88;6.47;;;2.50;74.60;;;;;;6139023;23;20559;-86
2024/01/22 00:36:04;;;;;;;9.05;6.13;;;2.60;75.30;;;;;;6150763;23;20204;-85
2024/01/22 00:38:31;;;;;;;15.07;7.00;;;2.60;94.30;;;;;;6152557;23;20189;-85
2024/01/22 00:40:59;;;;;;;8.23;6.50;;;2.50;99.90;;;;;;6151663;23;20188;-85
2024/01/22 00:43:26;;;;;;;7.30;6.60;;;2.60;99.90;;;;;;6149971;23;20188;-86
2024/01/22 00:45:53;;;;;;;10.07;6.55;;;2.50;99.90;;;;;;6136954;23;20232;-84
2024/01/22 00:48:19;;;;;;;8.40;6.30;;;2.60;99.90;;;;;;6136676;23;20197;-85
2024/01/22 00:50:46;;;;;;;7.53;6.18;;;2.60;99.90;;;;;;6135079;23;20728;-85
2024/01/22 00:53:13;;;;;;;8.32;6.85;;;2.60;99.90;;;;;;6134539;23;20260;-85
2024/01/22 00:55:40;;;;;;;10.48;6.50;;;2.60;99.90;;;;;;6133403;23;20536;-85
2024/01/22 00:58:08;;;;;;;8.65;6.43;;;2.60;99.90;;;;;;6134693;23;20177;-85
2024/01/22 01:00:35;;;;;;;6.20;5.60;;;2.60;99.90;;;;;;6133612;23;20177;-85
2024/01/22 01:03:02;;;;;;;8.45;7.55;;;2.60;99.90;;;;;;6132616;23;20209;-85
2024/01/22 01:05:28;;;;;;;6.78;6.07;;;2.70;99.90;;;;;;6134240;23;20292;-84
2024/01/22 01:07:55;;;;;;;6.97;5.75;;;2.60;99.90;;;;;;6134063;23;20215;-84
2024/01/22 01:10:22;;;;;;;8.88;6.15;;;2.70;99.90;;;;;;6134867;23;20180;-84
2024/01/22 01:12:49;;;;;;;7.75;5.90;;;2.70;99.90;;;;;;6134303;23;20236;-84
2024/01/22 01:15:20;;;;;;;6.72;5.32;;;2.70;95.60;;;;;;6133966;23;20244;-84
2024/01/22 01:17:46;;;;;;;7.38;5.45;;;2.70;99.90;;;;;;6133964;23;20165;-85
2024/01/22 01:20:13;;;;;;;6.13;5.55;;;2.80;84.20;;;;;;6141203;23;20185;-83
2024/01/22 01:22:40;;;;;;;9.05;5.68;;;2.90;51.10;;;;;;6140601;23;20205;-84
2024/01/22 01:25:08;;;;;;;6.28;5.57;;;2.90;16.70;;;;;;6132137;23;20275;-84
2024/01/22 01:27:34;;;;;;;5.85;4.57;;;2.90;8.20;;;;;;6131483;23;20227;-84
2024/01/22 01:30:01;;;;;;;6.65;5.75;;;3.00;1.00;;;;;;6130901;23;20276;-84
2024/01/22 01:32:29;;;;;;;6.78;4.82;;;3.00;1.00;;;;;;6131672;23;20185;-83
2024/01/22 01:34:56;;;;;;;6.28;5.22;;;3.10;1.00;;;;;;6143736;23;20197;-82
2024/01/22 01:37:23;;;;;;;6.05;5.55;;;3.00;1.00;;;;;;6145006;23;20181;-83
2024/01/22 01:39:50;;;;;;;6.18;4.80;;;3.10;1.00;;;;;;6134578;23;20207;-83
2024/01/22 01:42:17;;;;;;;9.25;5.88;;;3.10;1.00;;;;;;6134118;23;20523;-83
2024/01/22 01:44:50;;;;;;;5.72;4.80;;;3.10;1.00;;;;;;6132188;23;20196;-83
2024/01/22 01:47:16;;;;;;;5.82;5.32;;;3.20;1.00;;;;;;6132097;23;20166;-83
2024/01/22 01:49:46;;;;;;;7.85;4.78;;;3.20;1.00;;;;;;6132275;23;20333;-83
2024/01/22 01:52:14;;;;;;;6.63;5.10;;;3.20;1.00;;;;;;6135358;23;20224;-83
2024/01/22 01:54:43;;;;;;;6.70;5.45;;;3.20;1.00;;;;;;6133266;23;20201;-82
2024/01/22 01:57:11;;;;;;;6.78;5.93;;;3.20;1.00;;;;;;6132433;23;20525;-83
2024/01/22 01:59:39;;;;;;;8.85;5.35;;;3.20;1.00;;;;;;6133234;23;20177;-83
2024/01/22 02:02:06;;;;;;;10.05;5.80;;;3.20;1.00;;;;;;6135994;23;20213;-83
2024/01/22 02:04:33;;;;;;;7.72;5.43;;;3.20;1.00;;;;;;6137845;23;20549;-83
2024/01/22 02:07:03;;;;;;;5.18;4.70;;;3.30;1.00;;;;;;6134713;23;20244;-83
2024/01/22 02:09:47;;;;;;;7.45;5.30;;;3.30;1.00;;;;;;6136765;23;20224;-84
2024/01/22 02:12:14;;;;;;;6.47;4.88;;;3.30;1.00;;;;;;6136756;23;20181;-83
2024/01/22 02:14:40;;;;;;;7.47;5.32;;;3.30;5.90;;;;;;6135833;23;20691;-82
2024/01/22 02:17:07;;;;;;;5.18;4.78;;;3.40;1.70;;;;;;6135716;23;20571;-82
2024/01/22 02:19:34;;;;;;;5.20;4.68;;;3.30;11.60;;;;;;6134652;23;20185;-83
2024/01/22 02:22:02;;;;;;;7.07;5.15;;;3.40;21.70;;;;;;6137103;23;20264;-84
2024/01/22 02:24:31;;;;;;;6.25;5.25;;;3.40;21.20;;;;;;6135920;23;20244;-84
2024/01/22 02:26:57;;;;;;;7.75;5.38;;;3.40;32.30;;;;;;6135195;23;20260;-84
2024/01/22 02:29:24;;;;;;;8.85;5.15;;;3.40;62.40;;;;;;6135202;23;20247;-83
2024/01/22 02:31:52;;;;;;;7.32;5.15;;;3.40;96.00;;;;;;6134064;23;20187;-82
2024/01/22 02:34:19;;;;;;;4.93;4.15;;;3.40;94.20;;;;;;6147118;23;20181;-81
2024/01/22 02:36:46;;;;;;;10.98;6.10;;;3.50;99.90;;;;;;6155860;23;20181;-82
2024/01/22 02:39:13;;;;;;;5.43;4.90;;;3.50;99.90;;;;;;6149932;23;20277;-82
2024/01/22 02:41:42;;;;;;;6.10;5.22;;;3.50;99.70;;;;;;6142174;23;20262;-83
2024/01/22 02:44:09;;;;;;;6.20;5.05;;;3.50;99.90;;;;;;6151248;23;20188;-82
2024/01/22 02:46:36;;;;;;;4.82;4.43;;;3.50;99.90;;;;;;6151271;23;20208;-82
2024/01/22 02:49:02;;;;;;;5.28;4.22;;;3.60;99.90;;;;;;6151035;23;20188;-82
2024/01/22 02:51:29;;;;;;;5.45;4.95;;;3.60;99.90;;;;;;6151347;23;20170;-82
2024/01/22 02:53:56;;;;;;;6.50;5.10;;;3.70;99.90;;;;;;6148931;23;20671;-83
2024/01/22 02:56:24;;;;;;;5.45;4.90;;;3.60;99.90;;;;;;6142691;23;20188;-82
2024/01/22 02:58:52;;;;;;;6.03;4.95;;;3.70;99.90;;;;;;6153826;23;20166;-82
2024/01/22 03:01:19;;;;;;;6.05;5.18;;;3.80;99.90;;;;;;6152373;23;20192;-82
2024/01/22 03:03:46;;;;;;;7.32;4.68;;;3.80;99.90;;;;;;6154508;23;20184;-82
2024/01/22 03:06:13;;;;;;;6.32;4.85;;;3.80;99.90;;;;;;6153927;23;20209;-83
2024/01/22 03:08:40;;;;;;;5.85;4.72;;;3.80;99.90;;;;;;6155277;23;20189;-82
2024/01/22 03:11:07;;;;;;;9.02;5.10;;;3.90;99.90;;;;;;6154513;23;20216;-82
2024/01/22 03:13:34;;;;;;;6.10;4.90;;;3.90;99.90;;;;;;6154806;23;20162;-83
2024/01/22 03:16:02;;;;;;;6.30;4.50;;;3.90;99.90;;;;;;6154867;23;20224;-81
2024/01/22 03:18:29;;;;;;;6.88;5.15;;;3.90;99.90;;;;;;6154785;23;20177;-81
2024/01/22 03:20:55;;;;;;;6.72;5.25;;;3.90;99.90;;;;;;6154872;23;20168;-81
2024/01/22 03:23:22;;;;;;;6.30;5.70;;;3.90;99.90;;;;;;6152849;23;20181;-83
2024/01/22 03:25:49;;;;;;;4.63;4.22;;;4.00;99.90;;;;;;6150709;23;20220;-83
2024/01/22 03:28:16;;;;;;;5.93;4.60;;;3.90;99.90;;;;;;6146907;23;20188;-83
2024/01/22 03:30:43;;;;;;;5.47;4.95;;;4.00;99.90;;;;;;6136244;23;20279;-83
2024/01/22 03:33:11;;;;;;;7.13;5.47;;;4.00;99.90;;;;;;6135489;23;20184;-83
2024/01/22 03:35:38;;;;;;;5.10;4.60;;;4.00;99.90;;;;;;6135543;23;20275;-83
2024/01/22 03:38:05;;;;;;;5.00;4.47;;;4.00;99.90;;;;;;6135132;23;20240;-83
2024/01/22 03:40:31;;;;;;;8.68;4.20;;;4.00;99.90;;;;;;6135207;23;20204;-83
2024/01/22 03:42:58;;;;;;;5.38;4.07;;;4.00;99.90;;;;;;6135264;23;20211;-83
2024/01/22 03:45:25;;;;;;;4.95;4.25;;;4.10;99.90;;;;;;6135195;23;20281;-83
2024/01/22 03:47:52;;;;;;;5.95;4.47;;;4.10;99.90;;;;;;6134767;23;20241;-84
2024/01/22 03:50:20;;;;;;;5.50;4.18;;;4.10;99.90;;;;;;6137844;23;20207;-84
2024/01/22 03:52:47;;;;;;;5.28;4.82;;;4.10;99.90;;;;;;6145595;23;20216;-84
2024/01/22 03:55:13;;;;;;;4.55;4.00;;;4.10;99.90;;;;;;6132427;23;20284;-83
2024/01/22 03:57:41;;;;;;;5.10;4.15;;;4.10;99.90;;;;;;6134550;23;20188;-85
2024/01/22 04:00:08;;;;;;;6.60;4.45;;;4.10;99.90;;;;;;6136936;23;20181;-84
2024/01/22 04:02:35;;;;;;;5.13;4.32;;;4.10;99.90;;;;;;6135467;23;20552;-84
2024/01/22 04:05:02;;;;;;;6.50;5.10;;;4.10;99.90;;;;;;6135538;23;20209;-83
2024/01/22 04:07:30;;;;;;;6.88;5.10;;;4.20;99.90;;;;;;6138562;23;20181;-83
2024/01/22 04:09:57;;;;;;;6.43;4.45;;;4.10;99.90;;;;;;6139812;23;20231;-84
2024/01/22 04:12:24;;;;;;;4.60;4.00;;;4.20;1.00;;;;;;6139640;23;20232;-84
2024/01/22 04:14:51;;;;;;;4.95;4.55;;;4.10;93.50;;;;;;6139446;23;20256;-83
2024/01/22 04:17:18;;;;;;;4.38;3.97;;;4.10;99.90;;;;;;6138823;23;20208;-83
2024/01/22 04:19:44;;;;;;;4.80;3.92;;;4.00;1.00;;;;;;6142987;23;20185;-84
2024/01/22 04:22:11;;;;;;;8.52;5.00;;;4.00;1.00;;;;;;6139665;23;20257;-82
2024/01/22 04:24:41;;;;;;;4.72;4.32;;;3.90;1.00;;;;;;6137821;23;20228;-82
2024/01/22 04:27:08;;;;;;;5.00;4.05;;;3.90;1.00;;;;;;6135089;23;20236;-82
2024/01/22 04:29:35;;;;;;;4.82;4.40;;;3.90;1.00;;;;;;6140047;23;20193;-83
2024/01/22 04:32:02;;;;;;;4.50;4.10;;;3.90;1.00;;;;;;6140577;23;20219;-84
2024/01/22 04:34:29;;;;;;;7.78;4.70;;;3.90;1.00;;;;;;6146390;23;20182;-83
2024/01/22 04:36:56;;;;;;;4.90;4.07;;;4.00;1.00;;;;;;6150099;23;20181;-83
2024/01/22 04:39:24;;;;;;;4.57;4.20;;;4.00;99.90;;;;;;6149744;23;20177;-83
2024/01/22 04:41:53;;;;;;;4.00;3.70;;;4.10;99.90;;;;;;6152635;23;20185;-83
2024/01/22 04:44:20;;;;;;;7.20;4.60;;;4.20;9.50;;;;;;6145119;23;20229;-82
2024/01/22 04:46:47;;;;;;;3.92;3.50;;;4.20;1.00;;;;;;6141652;23;20188;-83
2024/01/22 04:49:14;;;;;;;5.30;4.10;;;4.10;82.90;;;;;;6140155;23;20279;-84
2024/01/22 04:51:42;;;;;;;4.60;4.07;;;4.20;99.90;;;;;;6142570;23;20187;-83
2024/01/22 04:54:10;;;;;;;4.25;3.88;;;4.40;1.00;;;;;;6137287;23;20180;-83
2024/01/22 04:56:41;;;;;;;4.80;4.35;;;4.30;1.00;;;;;;6135632;23;20200;-83
2024/01/22 04:59:09;;;;;;;7.55;4.13;;;4.30;1.00;;;;;;6136545;23;20620;-83
2024/01/22 05:01:36;;;;;;;3.90;3.50;;;4.30;1.00;;;;;;6136392;23;20181;-83
2024/01/22 05:04:03;;;;;;;4.45;3.50;;;4.40;1.00;;;;;;6135452;23;20187;-83
2024/01/22 05:06:31;;;;;;;5.40;3.65;;;4.40;1.00;;;;;;6134275;23;20656;-83
2024/01/22 05:08:57;;;;;;;4.40;3.17;;;4.40;1.00;;;;;;6136855;23;20232;-83
2024/01/22 05:11:24;;;;;;;4.47;3.22;;;4.50;1.00;;;;;;6136900;23;20581;-83
2024/01/22 05:13:52;;;;;;;5.05;3.60;;;4.40;1.00;;;;;;6142335;23;20188;-84
2024/01/22 05:16:23;;;;;;;3.67;3.47;;;4.40;1.00;;;;;;6150990;23;20248;-83
2024/01/22 05:18:51;;;;;;;4.00;3.65;;;4.50;1.00;;;;;;6149346;23;20205;-82
2024/01/22 05:21:18;;;;;;;4.78;3.70;;;4.50;1.00;;;;;;6147419;23;20177;-83
2024/01/22 05:23:44;;;;;;;3.53;3.00;;;4.50;1.00;;;;;;6142650;23;20181;-83
2024/01/22 05:26:12;;;;;;;3.67;3.38;;;4.70;1.00;;;;;;6137436;23;20212;-83
2024/01/22 05:28:38;;;;;;;4.40;2.97;;;4.70;99.90;;;;;;6136905;23;20177;-83
2024/01/22 05:31:05;;;;;;;6.55;3.42;;;4.60;1.00;;;;;;6136984;23;20196;-84
2024/01/22 05:33:33;;;;;;;3.65;3.30;;;4.60;1.00;;;;;;6136151;23;20212;-84
2024/01/22 05:36:00;;;;;;;4.22;3.13;;;4.60;1.00;;;;;;6136025;23;20228;-83
2024/01/22 05:38:27;;;;;;;3.20;2.90;;;4.70;1.00;;;;;;6136204;23;20181;-83
2024/01/22 05:40:54;;;;;;;3.30;3.10;;;4.70;1.00;;;;;;6136308;23;20232;-83
2024/01/22 05:43:21;;;;;;;3.90;3.08;;;4.80;1.00;;;;;;6143519;23;20260;-84
2024/01/22 05:45:47;;;;;;;2.92;2.63;;;4.80;99.90;;;;;;6144810;23;20533;-83
2024/01/22 05:48:14;;;;;;;4.93;3.15;;;4.80;99.90;;;;;;6137665;23;20188;-83
2024/01/22 05:50:42;;;;;;;2.88;2.67;;;4.80;1.00;;;;;;6151545;23;20208;-83
2024/01/22 05:53:09;;;;;;;2.50;2.30;;;5.00;99.90;;;;;;6154311;23;20173;-83
2024/01/22 05:55:36;;;;;;;7.95;3.25;;;5.00;99.90;;;;;;6146940;23;20228;-84
2024/01/22 05:58:03;;;;;;;2.85;2.65;;;5.10;99.90;;;;;;6142750;23;20188;-84
2024/01/22 06:00:30;;;;;;;5.32;2.38;;;5.20;99.90;;;;;;6147539;23;20203;-84
2024/01/22 06:02:59;;;;;;;3.20;2.90;;;5.20;99.90;;;;;;6141582;23;20656;-84
2024/01/22 07:49:27;;;;;;;2.80;2.60;;;6.50;1.00;;;;;;6078922;23;20195;-90
2024/01/22 08:00:00;;;;;;;;;;;;;;;;;;;;;
2024/01/22 08:03:01;;;;;;;4.38;2.70;;;6.50;1.00;;;;;;6194867;23;20164;-89
2024/01/22 08:16:49;;;;;;;;;;;;;;;;;;;;;
2024/01/22 08:20:05;;;;;;;12.15;3.00;;;6.40;99.90;;;;;;6164613;23;20190;-90
2024/01/22 08:26:46;;;;;;;2.90;2.10;;;6.20;1.00;;;;;;6154205;23;20200;-89
2024/01/22 08:30:08;;;;;;;;;;;;;;;;;;;;;
2024/01/22 08:39:14;;;;;;;2.53;2.33;;;5.90;99.90;;;;;;6243132;22;20175;-90
2024/01/22 08:41:59;;;;;;;3.72;2.65;;;5.90;99.90;;;;;;6241374;22;20185;-90
2024/01/22 08:44:44;;;;;;;3.90;2.22;;;5.80;99.90;;;;;;6244359;22;20157;-88
2024/01/22 08:47:41;;;;;;;3.88;3.33;;;5.70;1.00;;;;;;6241992;22;20677;-89
2024/01/22 10:19:07;;;;;;;;;;;;;;;;;;;;;
2024/01/22 13:03:42;;;;;;;;;;;;;;;;;;;;;
2024/01/22 13:15:41;;;;;;;3.27;2.23;;;8.90;99.90;;;;;;6221642;23;20406;-82
2024/01/22 13:18:08;;;;;;;6.33;3.00;;;9.00;99.90;;;;;;6222151;23;20465;-82
2024/01/22 13:20:35;;;;;;;1.70;1.60;;;9.00;99.90;;;;;;6225405;23;20965;-81
2024/01/22 13:23:02;;;;;;;2.47;1.80;;;9.00;99.90;;;;;;6229972;23;20402;-81
2024/01/22 13:25:31;;;;;;;1.70;1.53;;;9.00;99.90;;;;;;6195105;23;20409;-82
2024/01/22 13:27:58;;;;;;;2.70;1.70;;;9.00;99.90;;;;;;6194521;23;20470;-82
2024/01/22 13:30:25;;;;;;;2.23;1.80;;;9.00;99.90;;;;;;6195634;23;20378;-81
2024/01/22 13:32:53;;;;;;;4.20;2.10;;;9.00;99.90;;;;;;6193297;23;20377;-82
2024/01/22 13:35:20;;;;;;;3.50;1.40;;;9.00;99.90;;;;;;6195164;23;20408;-82
2024/01/22 13:37:47;;;;;;;1.83;1.73;;;9.00;99.90;;;;;;6192876;23;20420;-83
2024/01/22 13:40:14;;;;;;;1.47;1.37;;;9.00;99.90;;;;;;6192448;23;20431;-83
2024/01/22 13:42:41;;;;;;;2.40;1.90;;;9.00;99.90;;;;;;6192634;23;20378;-83
2024/01/22 13:45:08;;;;;;;3.73;2.00;;;9.10;99.90;;;;;;6192455;23;20442;-83
2024/01/22 13:47:37;;;;;;;3.30;1.40;;;9.00;99.90;;;;;;6192044;23;20456;-82
2024/01/22 13:50:06;;;;;;;2.80;1.87;;;9.10;99.90;;;;;;6191693;23;20414;-82
2024/01/22 13:52:33;;;;;;;1.97;1.13;;;9.10;32.00;;;;;;6200562;23;20425;-82
2024/01/22 13:55:00;;;;;;;1.73;1.63;;;9.20;1.00;;;;;;6191688;23;20457;-82
2024/01/22 13:57:27;;;;;;;2.93;2.13;;;9.20;1.00;;;;;;6192301;23;20381;-82
2024/01/22 13:59:54;;;;;;;1.80;1.70;;;9.20;1.00;;;;;;6200553;23;20374;-82
2024/01/22 14:02:20;;;;;;;1.93;1.60;;;9.20;15.00;;;;;;6195649;23;20401;-82
2024/01/22 14:04:47;;;;;;;2.50;1.80;;;9.20;1.00;;;;;;6195106;23;20498;-83
2024/01/22 14:07:15;;;;;;;2.00;1.27;;;9.30;1.00;;;;;;6194835;23;20420;-84
2024/01/22 14:09:42;;;;;;;3.00;2.00;;;9.30;1.00;;;;;;6193521;23;20771;-83
2024/01/22 14:12:09;;;;;;;2.10;1.90;;;9.20;99.90;;;;;;6194212;23;20792;-83
2024/01/22 14:14:36;;;;;;;2.13;1.43;;;9.20;99.90;;;;;;6193683;23;20956;-83
2024/01/22 14:17:04;;;;;;;2.63;1.97;;;9.20;99.90;;;;;;6199941;23;20417;-82
2024/01/22 14:19:32;;;;;;;1.60;1.50;;;9.20;66.30;;;;;;6207725;23;20474;-82
2024/01/22 14:21:59;;;;;;;1.27;1.27;;;9.30;1.00;;;;;;6213139;23;20419;-81
2024/01/22 14:24:27;;;;;;;1.60;1.23;;;9.40;1.00;;;;;;6211590;23;20423;-81
2024/01/22 14:26:54;;;;;;;3.70;1.80;;;9.40;1.00;;;;;;6213453;23;20406;-82
2024/01/22 14:29:21;;;;;;;1.80;1.70;;;9.50;1.00;;;;;;6211936;23;20413;-82
2024/01/22 14:31:48;;;;;;;3.17;1.80;;;9.50;1.00;;;;;;6214510;23;20421;-82
2024/01/22 14:34:16;;;;;;;2.57;1.90;;;9.50;1.00;;;;;;6211597;23;20423;-82
2024/01/22 14:36:43;;;;;;;2.00;1.80;;;9.40;1.00;;;;;;6205028;23;20411;-82
2024/01/22 14:39:11;;;;;;;1.87;1.60;;;9.50;1.00;;;;;;6207254;23;20411;-81
2024/01/22 14:41:39;;;;;;;2.13;1.57;;;9.40;1.00;;;;;;6209454;23;20411;-82
2024/01/22 14:44:06;;;;;;;2.70;1.90;;;9.40;33.40;;;;;;6208937;23;20430;-81
2024/01/22 14:46:32;;;;;;;2.13;2.03;;;9.40;33.70;;;;;;6210861;23;20414;-82
2024/01/22 14:48:59;;;;;;;2.60;1.67;;;9.40;99.90;;;;;;6211756;23;20411;-80
2024/01/22 14:51:26;;;;;;;1.60;1.17;;;9.40;99.90;;;;;;6211503;23;20445;-82
2024/01/22 14:53:53;;;;;;;6.60;3.20;;;9.40;56.20;;;;;;6210707;23;20446;-81
2024/01/22 14:56:20;;;;;;;2.00;1.80;;;9.50;99.90;;;;;;6208809;23;20377;-82
2024/01/22 14:58:48;;;;;;;3.80;2.07;;;9.50;99.90;;;;;;6208046;23;20411;-81
2024/01/22 15:01:15;;;;;;;4.30;2.60;;;9.40;99.90;;;;;;6203055;23;20399;-81
2024/01/22 15:03:42;;;;;;;2.50;1.40;;;9.50;1.00;;;;;;6201581;23;20440;-82
2024/01/22 15:06:09;;;;;;;2.73;2.60;;;9.50;8.10;;;;;;6200533;23;20411;-83
2024/01/22 15:08:36;;;;;;;1.63;1.53;;;9.50;18.30;;;;;;6199689;23;20411;-82
2024/01/22 15:11:03;;;;;;;1.90;1.80;;;9.50;99.90;;;;;;6200549;23;20406;-82
2024/01/22 15:13:30;;;;;;;1.50;1.40;;;9.50;99.90;;;;;;6197970;23;20436;-82
2024/01/22 15:15:58;;;;;;;4.10;1.70;;;9.50;83.90;;;;;;6199270;23;20400;-82
2024/01/22 15:18:25;;;;;;;4.07;1.60;;;9.50;99.90;;;;;;6198517;23;20382;-83
2024/01/22 15:20:52;;;;;;;3.13;1.60;;;9.50;1.00;;;;;;6198773;23;20415;-83
2024/01/22 15:23:19;;;;;;;2.07;1.50;;;9.50;92.80;;;;;;6197409;23;20784;-85
2024/01/22 15:25:46;;;;;;;2.30;2.10;;;9.50;99.90;;;;;;6198435;23;20411;-83
2024/01/22 15:28:13;;;;;;;2.67;2.17;;;9.50;99.90;;;;;;6198737;23;20438;-83
2024/01/22 15:30:40;;;;;;;2.50;2.30;;;9.50;1.00;;;;;;6198766;23;20422;-83
2024/01/22 15:33:08;;;;;;;4.00;2.20;;;9.50;1.00;;;;;;6199037;23;20766;-82
2024/01/22 15:35:35;;;;;;;2.50;2.10;;;9.40;67.50;;;;;;6212616;23;20438;-81
2024/01/22 15:38:02;;;;;;;6.07;2.33;;;9.40;99.90;;;;;;6213964;23;20407;-81
2024/01/22 15:40:29;;;;;;;2.27;2.07;;;9.30;1.00;;;;;;6213252;23;20358;-80
2024/01/22 15:42:56;;;;;;;3.60;2.10;;;9.20;99.90;;;;;;6213949;23;20415;-81
2024/01/22 15:45:23;;;;;;;2.03;1.53;;;9.10;1.00;;;;;;6213887;23;20402;-81
2024/01/22 15:47:52;;;;;;;2.90;2.33;;;9.10;1.00;;;;;;6213840;23;20395;-81
2024/01/22 15:50:20;;;;;;;1.63;1.30;;;9.10;1.00;;;;;;6213786;23;20415;-81
2024/01/22 15:52:47;;;;;;;1.93;1.73;;;9.00;4.80;;;;;;6205262;23;20727;-82
2024/01/22 15:55:13;;;;;;;1.47;1.37;;;9.00;99.90;;;;;;6200112;23;20441;-82
2024/01/22 15:57:40;;;;;;;2.57;1.33;;;8.90;99.90;;;;;;6197794;23;20410;-82
2024/01/22 16:00:12;;;;;;;1.53;1.30;;;8.90;1.00;;;;;;6198723;23;20876;-82
2024/01/22 16:02:39;;;;;;;1.80;1.70;;;8.80;99.90;;;;;;6198643;23;20921;-81
2024/01/22 16:05:07;;;;;;;2.33;2.00;;;8.80;99.90;;;;;;6198145;23;20454;-82
2024/01/22 16:07:35;;;;;;;2.40;2.20;;;8.70;1.00;;;;;;6196578;23;20438;-84
2024/01/22 16:10:03;;;;;;;2.90;1.80;;;8.70;1.00;;;;;;6202666;23;20406;-83
2024/01/22 16:12:30;;;;;;;2.20;2.00;;;8.70;1.00;;;;;;6208379;23;20434;-82
2024/01/22 16:14:57;;;;;;;2.00;1.80;;;8.70;1.00;;;;;;6209390;23;20429;-83
2024/01/22 16:17:24;;;;;;;1.67;1.50;;;8.70;1.00;;;;;;6209428;23;20438;-83
2024/01/22 16:19:51;;;;;;;2.40;1.60;;;8.70;1.00;;;;;;6202495;23;20415;-83
2024/01/22 16:22:18;;;;;;;1.63;1.47;;;8.70;1.00;;;;;;6201075;23;20437;-85
2024/01/22 16:24:47;;;;;;;1.70;1.40;;;8.70;1.00;;;;;;6193749;23;20409;-86
2024/01/22 16:27:15;;;;;;;3.00;2.23;;;8.60;1.00;;;;;;6208681;23;20421;-85
2024/01/22 16:29:44;;;;;;;1.67;1.57;;;8.70;99.90;;;;;;6201768;23;20439;-85
2024/01/22 16:32:11;;;;;;;1.80;1.70;;;8.70;99.90;;;;;;6194222;23;20505;-85
2024/01/22 16:34:38;;;;;;;2.83;2.60;;;8.70;11.00;;;;;;6191994;23;20427;-85
2024/01/22 16:37:05;;;;;;;1.60;1.50;;;8.70;1.00;;;;;;6201090;23;20410;-84
2024/01/22 16:39:37;;;;;;;1.73;1.63;;;8.70;1.00;;;;;;6212332;23;20411;-83
2024/01/22 16:42:06;;;;;;;4.67;1.87;;;8.70;1.00;;;;;;6205914;23;20403;-84
2024/01/22 16:44:33;;;;;;;2.60;1.23;;;8.70;99.90;;;;;;6194373;23;20470;-84
2024/01/22 16:47:00;;;;;;;1.60;1.50;;;8.70;99.90;;;;;;6196623;23;20461;-84
2024/01/22 16:49:28;;;;;;;2.60;1.50;;;8.80;99.90;;;;;;6197685;23;20434;-84
2024/01/22 16:51:55;;;;;;;1.93;1.83;;;8.80;99.90;;;;;;6211708;23;20446;-83
2024/01/22 16:54:21;;;;;;;3.50;1.77;;;8.80;41.00;;;;;;6212206;23;20431;-83
2024/01/22 16:56:48;;;;;;;2.60;1.80;;;8.80;45.40;;;;;;6212764;23;20407;-84
2024/01/22 16:59:16;;;;;;;3.13;2.30;;;8.80;81.10;;;;;;6210120;23;20392;-85
2024/01/22 17:01:43;;;;;;;2.00;1.80;;;8.80;1.00;;;;;;6201973;23;20407;-85
2024/01/22 17:04:10;;;;;;;2.13;1.83;;;8.90;1.00;;;;;;6197045;23;20401;-84
2024/01/22 17:06:38;;;;;;;3.20;1.60;;;8.90;99.90;;;;;;6197398;23;20486;-84
2024/01/22 17:09:05;;;;;;;2.23;1.20;;;8.90;99.90;;;;;;6198277;23;20407;-84
2024/01/22 17:11:32;;;;;;;2.80;1.77;;;8.90;99.90;;;;;;6198098;23;20469;-84
2024/01/22 17:13:59;;;;;;;5.70;1.70;;;8.90;1.00;;;;;;6195692;23;20465;-83
2024/01/22 17:16:27;;;;;;;1.63;1.53;;;8.90;99.90;;;;;;6195526;23;20474;-84
2024/01/22 17:18:54;;;;;;;5.23;1.90;;;8.90;99.90;;;;;;6199203;23;20406;-83
2024/01/22 17:21:20;;;;;;;2.23;1.83;;;8.90;99.90;;;;;;6194487;23;20407;-84
2024/01/22 17:23:47;;;;;;;3.00;2.00;;;8.90;99.90;;;;;;6194657;23;20558;-84
2024/01/22 17:26:14;;;;;;;1.83;1.70;;;8.90;99.90;;;;;;6197626;23;20426;-84
2024/01/22 17:28:41;;;;;;;1.90;1.67;;;8.80;99.90;;;;;;6203128;23;20445;-85
2024/01/22 17:31:08;;;;;;;2.53;1.77;;;8.80;1.00;;;;;;6206535;23;20376;-83
2024/01/22 17:33:37;;;;;;;2.90;1.50;;;8.80;99.90;;;;;;6199041;23;20451;-84
2024/01/22 17:36:07;;;;;;;1.90;1.67;;;8.80;99.90;;;;;;6199590;23;20393;-85
2024/01/22 17:38:35;;;;;;;3.07;1.83;;;8.80;1.00;;;;;;6199609;23;20381;-84
2024/01/22 17:41:02;;;;;;;3.40;2.03;;;8.80;1.00;;;;;;6202285;23;20407;-84
2024/01/22 17:43:29;;;;;;;2.73;2.20;;;8.80;1.00;;;;;;6205934;23;20390;-83
2024/01/22 17:45:55;;;;;;;3.77;2.20;;;8.70;1.00;;;;;;6201654;23;20392;-85
2024/01/22 17:48:22;;;;;;;2.40;1.63;;;8.70;99.90;;;;;;6194861;23;20407;-85
2024/01/22 17:50:51;;;;;;;4.30;1.60;;;8.80;1.00;;;;;;6193343;23;20782;-86
2024/01/22 17:53:17;;;;;;;3.63;1.60;;;8.70;1.00;;;;;;6206670;23;20439;-84
2024/01/22 17:55:44;;;;;;;2.00;1.80;;;8.70;1.00;;;;;;6213223;23;20449;-83
2024/01/22 17:58:11;;;;;;;4.00;2.50;;;8.70;99.90;;;;;;6208425;23;20397;-82
2024/01/22 18:00:40;;;;;;;4.07;1.63;;;8.60;1.00;;;;;;6201170;23;20407;-84
2024/01/22 18:03:07;;;;;;;5.17;2.20;;;8.50;99.90;;;;;;6205107;23;20382;-84
2024/01/22 18:05:34;;;;;;;5.50;1.43;;;8.50;99.90;;;;;;6210211;23;20462;-83
2024/01/22 18:08:02;;;;;;;3.27;2.53;;;8.50;1.00;;;;;;6207029;23;20390;-82
2024/01/22 18:10:29;;;;;;;6.07;2.23;;;8.50;1.00;;;;;;6200814;23;20381;-84
2024/01/22 18:12:56;;;;;;;2.50;1.67;;;8.50;1.00;;;;;;6203954;23;20413;-84
2024/01/22 18:15:23;;;;;;;4.73;1.90;;;8.50;1.00;;;;;;6198534;23;20438;-84
2024/01/22 18:17:50;;;;;;;3.27;1.50;;;8.40;1.00;;;;;;6198238;23;20385;-85
2024/01/22 18:20:16;;;;;;;3.97;1.53;;;8.40;1.00;;;;;;6202313;23;20441;-84
2024/01/22 18:22:45;;;;;;;4.47;2.07;;;8.40;1.00;;;;;;6206725;23;20901;-85
2024/01/22 18:25:13;;;;;;;5.00;1.77;;;8.40;1.00;;;;;;6206587;23;20429;-84
2024/01/22 18:27:41;;;;;;;4.63;2.57;;;8.40;1.00;;;;;;6205929;23;20434;-84
2024/01/22 18:30:09;;;;;;;5.70;2.77;;;8.30;1.00;;;;;;6208238;23;20411;-84
2024/01/22 18:32:36;;;;;;;8.03;2.97;;;8.40;1.00;;;;;;6210883;23;20437;-85
2024/01/22 18:35:03;;;;;;;8.57;3.07;;;8.40;1.00;;;;;;6206503;23;20427;-85
2024/01/22 18:37:30;;;;;;;4.77;2.33;;;8.40;1.00;;;;;;6199506;23;20385;-86
2024/01/22 18:39:57;;;;;;;4.90;2.80;;;8.40;1.00;;;;;;6200950;23;20409;-85
2024/01/22 18:42:25;;;;;;;7.00;2.23;;;8.40;99.90;;;;;;6198678;23;20442;-85
2024/01/22 18:44:52;;;;;;;3.83;2.10;;;8.30;1.00;;;;;;6195809;23;20405;-85
2024/01/22 18:47:19;;;;;;;2.80;2.10;;;8.30;1.00;;;;;;6196896;23;20408;-86
2024/01/22 18:49:46;;;;;;;4.70;2.20;;;8.30;1.00;;;;;;6209959;23;20362;-85
2024/01/22 18:52:13;;;;;;;6.23;2.53;;;8.30;1.00;;;;;;6196233;23;20413;-85
2024/01/22 18:54:42;;;;;;;6.47;2.30;;;8.30;1.00;;;;;;6198420;23;20458;-84
2024/01/22 18:57:09;;;;;;;6.73;2.63;;;8.20;1.00;;;;;;6199371;23;20464;-85
2024/01/22 18:59:39;;;;;;;3.77;2.23;;;8.20;1.00;;;;;;6210534;23;20386;-84
2024/01/22 19:02:06;;;;;;;4.80;2.30;;;8.10;70.50;;;;;;6214636;23;20403;-84
2024/01/22 19:04:36;;;;;;;6.13;2.40;;;8.10;99.90;;;;;;6214140;23;20436;-84
2024/01/22 19:07:02;;;;;;;7.77;2.87;;;7.90;1.00;;;;;;6214719;23;20399;-83
2024/01/22 19:09:29;;;;;;;5.93;2.67;;;7.90;93.70;;;;;;6214825;23;20365;-83
2024/01/22 19:11:56;;;;;;;9.20;2.50;;;7.90;99.90;;;;;;6215131;23;20403;-83
